Raymond, NE (68428)

2:44 AM CDT on August 28, 2015 (GMT -0500)
Raymond, NE | | Change Station
CLOSE
Current Station
Personal Weather Station
Location: Raymond, NE
Elevation: 1309 ft
Nearby Weather Stations

Elev 1309 ft 40.98 °N, 96.78 °W | Updated 4 minutes ago

Rain
Rain
67.8 °F
Feels Like 67.8 °F
N
5.0
Wind Variable Wind from SE
Gusts 12.0 mph

Today
High -- | Low -- °F
--% Chance of Precip.
Yesterday
High -- | Low -- °F
Precip. -- in
6:49 AM 8:06 PM
Waxing Gibbous, 97% visible
Pressure 29.88 in
Visibility 9.0 miles
Clouds Few 2100 ft
Mostly Cloudy 3100 ft
Overcast 7500 ft
Dew Point 67 °F
Humidity 97%
Rainfall 0.63 in
Snow Depth Not available.
UV 0 out of 12
Pollen 8.70 out of 12
Air Quality Not available.
Flu Activity Not available.
SPECI KLNK 280728Z AUTO 11007KT 9SM FEW021 BKN031 OVC075 21/20 A2988 RMK AO2 LTG DSNT NE-S RAE15 TSE07 P0009 T02110200
Pressure 29.88 in
Visibility 9.0 miles
Clouds Few 2100 ft
Mostly Cloudy 3100 ft
Overcast 7500 ft
Dew Point 67 °F
Humidity 97%
Rainfall 0.63 in
Snow Depth Not available.
UV 0 out of 12
Pollen 8.70 out of 12
Air Quality Not available.
Flu Activity Not available.
SPECI KLNK 280728Z AUTO 11007KT 9SM FEW021 BKN031 OVC075 21/20 A2988 RMK AO2 LTG DSNT NE-S RAE15 TSE07 P0009 T02110200

10-Day Weather Forecast

×

Almanac

Astronomy

Aug. 28, 2015 Rise Set
Actual Time
Civil Twilight
Nautical Twilight
Astronomical Twilight
Moon
Length of Visible Light
Length of Day
Tomorrow will be .
, % of the Moon is Illuminated

Today's Extremes

State Highs State Lows

Community

WunderPhotos

Upload Photos

1,850,348 photos uploaded!

WunderBlogs® & News

Nearby

Air Quality

  Air Quality AQ Index Pollutant
Not available.

Snow Depth

Station Depth Elevation

Earthquake Activity

City Distance Mag. Time & Date
Minimum magnitude displayed is 2.5.

Coastal Water Temperatures

Place Temperature

Stations

Nearby Weather Stations

Station Location Temp. Windchill Dew Point Humidity Wind Precip. Elev Updated Type